Tiempo atmosférico en la estación meteorológica de Écija, Sevilla (130 m.)

Fecha
DESCASC
Temp. máxima en grados centígrados (hora)
DESCASC
Temp. mínima en grados centígrados (hora)
DESCASC
Temp. media en grados centígrados
DESCASC
Racha de viento máxima en m/sg (hora)
DESCASC
Velocidad máxima media en intervalos de 10 minutos(hora)
DESCASC
Precipitaciones diarias en mm
DESCASC
Precipitaciones de 00:00 a 06:00 en mm
DESCASC
Precipitaciones de 06:00 a 12:00 en mm
DESCASC
Precipitaciones de 12:00 a 18:00 en mm
DESCASC
Precipitaciones de 18:00 a 24:00 en mm
DESCASC
19-10-2017 21.6 (15:40) 15.1 (07:10) 18.4 8.89 (00:10) 5.83 (00:10) 2.9 2.9 0 0 0
18-10-2017 20.3 (15:50) 15.7 (09:10) 18 8.89 (23:59) 5.56 (03:50) 13.8 7.9 5.3 0.1 0.5
17-10-2017 28.1 (15:20) 19 (23:59) 23.6 15.83 (16:50) 8.61 (16:30) 0 0 0 0 0
16-10-2017 30.3 (15:50) 16 (08:10) 23.1 9.17 (14:10) 6.39 (14:10) 0 0 0 0 0
15-10-2017 33.4 (14:50) 17 (00:00) 25.2 11.11 (15:10) 6.39 (16:20) 0 0 0 0 0
14-10-2017 33.3 (17:00) 16.4 (00:00) 24.8 6.39 (20:20) 4.17 (20:20) 0 0 0 0 0
13-10-2017 35.2 (15:40) 16.6 (00:00) 25.9 7.22 (17:00) 4.44 (17:00) 0 0 0 0 0
12-10-2017 34.6 (16:30) 18.7 (00:00) 26.6 8.89 (22:20) 5.83 (17:50) 0 0 0 0 0
11-10-2017 34.3 (16:20) 13.9 (00:00) 24.1 7.78 (15:30) 4.17 (12:20) 0 0 0 0 0
10-10-2017 32.7 (16:10) 14.3 (00:00) 23.5 5.83 (15:30) 3.89 (00:10) 0 0 0 0 0
09-10-2017 32.8 (16:50) 14.6 (00:00) 23.7 6.67 (23:30) 4.72 (23:30) 0 0 0 0 0
08-10-2017 31.5 (16:30) 17.2 (00:00) 24.4 6.67 (13:20) 4.44 (05:30) 0 0 0 0 0
07-10-2017 32.7 (14:50) 16.2 (00:00) 24.5 8.89 (21:50) 6.39 (21:30) 0 0 0 0 0
06-10-2017 34.9 (17:50) 14 (00:00) 24.5 8.89 (22:50) 5.83 (22:40) 0 0 0 0 0
05-10-2017 32.5 (16:40) 16.4 (00:00) 24.4 7.5 (16:00) 3.89 (16:00) 0 0 0 0 0
04-10-2017 31.7 (15:20) 18.7 (00:00) 25.2 10.28 (19:30) 6.39 (18:30) 0 0 0 0 0
03-10-2017 32.6 (18:30) 16.4 (00:00) 24.5 8.06 (21:10) 5.28 (21:10) 0 0 0 0 0
02-10-2017 33.1 (17:20) 17.1 (00:00) 25.1 8.89 (18:30) 5.83 (20:50) 0.1 0 0 0.1 0
01-10-2017 33.2 (16:00) 16.6 (00:00) 24.9 5.28 (00:10) 3.89 (00:10) 0 0 0 0 0
30-09-2017 32.5 (17:10) 15.3 (00:00) 23.9 6.11 (22:30) 3.89 (22:30) 0 0 0 0 0
29-09-2017 31.6 (17:00) 18 (00:00) 24.8 8.89 (00:10) 5.83 (00:10) 0 0 0 0 0
28-09-2017 30.6 (15:30) 19.2 (00:00) 24.9 10 (23:00) 5.83 (23:20) 0 0 0 0 0
27-09-2017 26.6 (18:00) 13.9 (00:00) 20.3 9.72 (14:50) 6.39 (14:50) 0 0 0 0 0
26-09-2017 32.4 (16:40) 12.3 (00:00) 22.4 10 (20:30) 6.39 (20:30) 0 0 0 0 0
25-09-2017 33 (17:10) 15.6 (00:00) 24.3 10.56 (22:30) 6.67 (22:10) 0 0 0 0 0
24-09-2017 31.9 (16:10) 16.2 (00:00) 24.1 6.11 (23:59) 4.44 (23:59) 0 0 0 0 0
23-09-2017 31.4 (16:40) 17.4 (00:00) 24.4 9.17 (00:10) 5.56 (00:30) 0 0 0 0 0
22-09-2017 32.3 (17:20) 14.9 (00:00) 23.6 7.5 (21:10) 5.28 (00:40) 0 0 0 0 0
21-09-2017 32.4 (16:40) 13.1 (00:00) 22.8 7.5 (22:20) 5 (23:10) 0 0 0 0 0
20-09-2017 33.2 (16:30) 13.7 (00:00) 23.5 7.5 (23:30) 5.56 (23:20) 0 0 0 0 0

Gráficas

Temp. máximas Temp. mínimas Temp. medias Precipitaciones Rachas de viento máximas Velocidades máximas media en intervalos de 10 minutos

Datos horarios

Fecha y hora oficial Temperatura (ºC) Velocidad del viento (km/h) Dirección del viento Racha (km/h) Dirección de racha Precipitación (mm) Presión (hPa) Tendencia (hPa) Humedad (%)
2017-10-19 23:00:00 18.1 12 Oeste 18 Oeste 0 1003.1 1.9 85
2017-10-19 22:00:00 17.9 12 Oeste 19 Oeste 0 1002.5 2.5 86
2017-10-19 21:00:00 17.7 11 Oeste 20 Oeste 0 1001.8 2.2 85
2017-10-19 20:00:00 18.5 12 Oeste 19 Oeste 0 1001.2 1.7 76
2017-10-19 19:00:00 20.1 12 Oeste 22 Oeste 0 1000 0.5 63
2017-10-19 18:00:00 21.5 10 Oeste 25 Oeste 0 999.6 -0.3 60
2017-10-19 17:00:00 20.5 14 Oeste 26 Sudoeste 0 999.5 -0.6 62
2017-10-19 16:00:00 21.2 12 Oeste 27 Oeste 0 999.5 -0.8 62
2017-10-19 15:00:00 20.8 15 Oeste 24 Oeste 0 999.9 -0.2 63
2017-10-19 14:00:00 19.5 5 Noroeste 12 Noroeste 0 1000.1 0.7 67
2017-10-19 13:00:00 18.2 6 Norte 13 Norte 0 1000.3 1.7 77
2017-10-19 12:00:00 17.3 8 Noroeste 13 Norte 0 1000.1 2.4 91
2017-10-19 11:00:00 16.4 8 Norte 15 Oeste 0 999.4 2 99
2017-10-19 10:00:00 15.7 10 Oeste 16 Oeste 0 998.6 1.8 99
2017-10-19 09:00:00 15.4 3 Oeste 9 Oeste 0 997.7 1.2 99
2017-10-19 08:00:00 15.4 5 Sudoeste 10 Sudoeste 0 997.4 1.1 99
2017-10-19 07:00:00 15.2 9 Sudoeste 11 Sudoeste 0 996.8 -0.5 99
2017-10-19 06:00:00 15.4 4 Sudoeste 15 Sudoeste 0 996.5 -1.4 99
2017-10-19 05:00:00 15.4 13 Sudoeste 17 Sudoeste 0 996.3 -2 99
2017-10-19 04:00:00 15.8 5 Sur 16 Sudoeste 0 997.3 -1.9 99
2017-10-19 03:00:00 16.2 10 Sudoeste 21 Sudoeste 0.8 997.9 -1.2 99
2017-10-19 02:00:00 16.5 12 Sudoeste 24 Sudoeste 1.6 998.3 -0.7 99
2017-10-19 01:00:00 16.8 6 Oeste 32 Oeste 0.5 999.2 0.5 99
2017-10-19 00:00:00 16.8 18 Oeste 32 Oeste 0.5 999.1 -0.1 97
2017-10-18 23:00:00 17.1 15 Oeste 27 Sudoeste 0 999 1 96
2017-10-18 22:00:00 16.9 14 Sudoeste 29 Sudoeste 0 998.7 -0.1 95
2017-10-18 21:00:00 16.9 16 Sudoeste 22 Sudoeste 0 999.2 0.9 93
2017-10-18 20:00:00 17.6 13 Sudoeste 22 Sudoeste 0 998 -0.2 87
2017-10-18 19:00:00 18 10 Oeste 23 Sudoeste 0 998.8 0.3 85
2017-10-18 18:00:00 18.7 10 Noroeste 20 Noroeste 0 998.3 -0.8 76
2017-10-18 17:00:00 19.2 14 Oeste 25 Oeste 0 998.2 -1.6 74
2017-10-18 16:00:00 20.1 14 Oeste 25 Sudoeste 0 998.5 -2 69
2017-10-18 15:00:00 18.9 9 Noroeste 20 Sudoeste 0.1 999.1 -1.6 85
2017-10-18 14:00:00 18.9 13 Sudoeste 20 Sudoeste 0 999.8 -0.8 82
2017-10-18 13:00:00 18.8 12 Oeste 22 Oeste 0 1000.5 0.4 88
2017-10-18 12:00:00 17.5 10 Oeste 21 Oeste 0 1000.7 0.6 98
2017-10-18 11:00:00 16.6 10 Sudoeste 22 Sudoeste 0.3 1000.6 1 99
2017-10-18 10:00:00 15.9 11 Sudoeste 23 Noroeste 0.4 1000.1 0.5 99
2017-10-18 09:00:00 15.8 14 Oeste 26 Oeste 0.2 1000.1 0.6 99
2017-10-18 08:00:00 16.5 10 Sudoeste 22 Sudoeste 3.3 999.6 -0.6 99
2017-10-18 07:00:00 16.7 9 Oeste 15 Sudoeste 1.1 999.6 -1.9 99
2017-10-18 06:00:00 16.3 8 Sur 15 Sur 0 999.5 -2.3 99
2017-10-18 05:00:00 16.3 10 Sur 22 Sur 0.2 1000.2 -1.7 99
2017-10-18 04:00:00 16.4 17 Sur 30 Sur 2.6 1001.5 -0.5 99
2017-10-18 03:00:00 17.8 5 Sur 12 Sur 4.7 1001.8 -0.7 99
2017-10-18 02:00:00 18.6 6 Oeste -- -- -- 1001.9 -1.4 90
2017-10-18 01:00:00 19.8 13 Sur 23 Sur 0 1002 -1.4 78
2017-10-18 00:00:00 19.1 5 Sudeste 9 Sudeste 0 1002.5 -0.7 92
2017-10-17 23:00:00 19.5 2 Nordeste 15 Noroeste 0 1003.3 0.2 91
2017-10-17 22:00:00 20 5 Norte 10 Oeste 0 1003.4 0.6 86
2017-10-17 21:00:00 20.4 4 Nordeste 12 Noroeste 0 1003.2 0.1 78
2017-10-17 20:00:00 21 4 Norte 21 Norte 0 1003.1 0.2 78
2017-10-17 19:00:00 22.3 11 Norte 27 Noroeste 0 1002.8 -0.4 71
2017-10-17 18:00:00 23.3 20 Noroeste 40 Sudoeste 0 1003.1 -1.4 67
2017-10-17 17:00:00 27 28 Sudoeste 57 Sur 0 1002.9 -2.2 51
2017-10-17 16:00:00 27.4 29 Sudoeste 43 Oeste 0 1003.2 -2.2 51
2017-10-17 15:00:00 27.3 9 Sur 31 Sur 0 1004.5 -1.4 57
2017-10-17 14:00:00 24.8 17 Sur 31 Sur 0 1005.1 -1.3 62
2017-10-17 13:00:00 23.9 15 Sur 32 Sudeste 0 1005.4 -0.5 65
2017-10-17 12:00:00 22.8 18 Sur 30 Sur 0 1005.9 0.4 66
2017-10-17 11:00:00 22.7 14 Sur 26 Sur 0 1006.4 1.2 68
2017-10-17 10:00:00 20.9 17 Sur 26 Sur 0 1005.9 1 71
2017-10-17 09:00:00 20.5 10 Sur 20 Sur 0 1005.5 0.9 70
2017-10-17 08:00:00 20.7 15 Sur 23 Sur 0 1005.2 0 69
2017-10-17 07:00:00 21.1 0 Calma 23 Sudeste 0 1004.9 -1 66
2017-10-17 06:00:00 21 18 Sudeste 25 Sudeste 0 1004.6 -2 66
2017-10-17 05:00:00 20.8 9 Sur 21 Sur 0 1005.2 -2 67
2017-10-17 04:00:00 20 6 Sudeste 21 Sur 0 1005.9 -1.6 68
2017-10-17 03:00:00 20 12 Sudeste 19 Sur 0 1006.6 -1.1 68
2017-10-17 02:00:00 19.8 6 Sur 16 Sudeste 0 1007.2 -0.2 67
2017-10-17 01:00:00 20 11 Sur 24 Sur 0 1007.5 0.5 65
2017-10-17 00:00:00 20 9 Sur 22 Sur 0 1007.7 1 64
2017-10-16 23:00:00 20.9 10 Sur 32 Sur 0 1007.4 1.2 63
2017-10-16 22:00:00 21.6 14 Sur 27 Sudoeste 0 1007 1 60
2017-10-16 21:00:00 22.5 15 Sudoeste 24 Sudoeste 0 1006.7 1 56
2017-10-16 20:00:00 23.7 15 Sudoeste 30 Sur 0 1006.2 0.4 50
2017-10-16 19:00:00 26.2 17 Sur 31 Sur 0 1006 -0.1 44
2017-10-16 18:00:00 28.5 20 Sur 29 Sur 0 1005.7 -1.1 40
2017-10-16 17:00:00 30 19 Sur 30 Sudeste 0 1005.8 -1.7 38
2017-10-16 16:00:00 29.7 19 Sur 32 Sur 0 1006.1 -1.8 39
2017-10-16 15:00:00 29.4 21 Sur 33 Sudeste 0 1006.8 -1.6 42
2017-10-16 14:00:00 29 22 Sur 32 Sur 0 1007.5 -0.7 44
2017-10-16 13:00:00 27.9 15 Sur 26 Sudeste 0 1007.9 0 46
2017-10-16 12:00:00 25.9 11 Este 19 Este 0 1008.4 1.1 52
2017-10-16 11:00:00 23.3 13 Este 25 Este 0 1008.2 1.5 57
2017-10-16 10:00:00 20.3 5 Sudeste 11 Sudeste 0 1007.9 1.3 65
2017-10-16 09:00:00 16.5 0 Calma 4 Noroeste 0 1007.3 0.7 76
2017-10-16 08:00:00 16.3 0 Calma 7 Norte 0 1006.7 0.4 74
2017-10-16 07:00:00 16.7 2 Noroeste 11 Norte 0 1006.6 0.1 70
2017-10-16 06:00:00 18.7 4 Sudeste 17 Sur 0 1006.6 0 68
2017-10-16 05:00:00 18.8 9 Este 31 Sudeste 0 1006.3 -0.1 68
2017-10-16 04:00:00 20.5 15 Sudeste 26 Sudeste 0 1006.5 -0.1 74
2017-10-16 03:00:00 20.3 9 Sudeste 29 Sur 0 1006.6 0.3 71
2017-10-16 02:00:00 21.3 18 Sur 31 Sur 0 1006.4 0.1 61
2017-10-16 01:00:00 22.2 16 Sur 28 Sur 0 1006.6 0.6 48
2017-10-16 00:00:00 21.9 9 Sur 20 Sur 0 1006.3 0.8 46
2017-10-15 23:00:00 22.9 12 Sur 22 Sur 0 1006.3 0.9 45
2017-10-15 22:00:00 22.8 9 Sur 14 Sur 0 1006 0.9 45
2017-10-15 21:00:00 24.4 10 Sur 20 Sur 0 1005.5 0.2 42
2017-10-15 20:00:00 26.2 9 Sur 31 Sur 0 1005.4 -0.1 38
2017-10-15 19:00:00 28.6 18 Sur 34 Sudeste 0 1005.1 -0.6 35
2017-10-15 18:00:00 31 16 Sur 28 Sur 0 1005.3 -0.7 33
2017-10-15 17:00:00 32.5 17 Sur 31 Sur 0 1005.5 -1.4 33
2017-10-15 16:00:00 32.6 21 Sur 40 Sudeste 0 1005.7 -2.2 33
2017-10-15 15:00:00 33 20 Sur 40 Sudeste 0 1006 -2.5 33
2017-10-15 14:00:00 32.5 8 Sudeste 26 Sudeste 0 1006.9 -1.9 35
2017-10-15 13:00:00 29.8 3 Sur 10 Este 0 1007.9 -0.6 40
2017-10-15 12:00:00 27.1 5 Este 14 Nordeste 0 1008.5 0.3 43
2017-10-15 11:00:00 24.3 3 Nordeste 8 Nordeste 0 1008.8 1 46
2017-10-15 10:00:00 19.9 3 Norte 5 Norte 0 1008.5 0.9 51
2017-10-15 09:00:00 17.8 0 Calma 4 Sudeste 0 1008.2 0.8 52
2017-10-15 08:00:00 17.4 3 Sur 5 Sudoeste 0 1007.8 0.6 52
2017-10-15 07:00:00 17.7 3 Sur 7 Sur 0 1007.6 0.1 50
2017-10-15 06:00:00 18 3 Sur 9 Sur 0 1007.4 -0.3 50
2017-10-15 05:00:00 18.4 4 Sur 6 Sudeste 0 1007.2 -0.6 48
2017-10-15 04:00:00 18.6 0 Calma 8 Sudoeste 0 1007.5 -0.2 46
2017-10-15 03:00:00 19.2 5 Sudoeste 9 Sur 0 1007.7 -0.4 45
2017-10-15 02:00:00 20.3 5 Sudeste 12 Sur 0 1007.8 0.1 44
2017-10-15 01:00:00 22.1 4 Sur 12 Sudeste 0 1007.7 0.4 41
2017-10-15 00:00:00 23.9 5 Sudeste 8 Nordeste 0 1008.1 1.1 38
2017-10-14 23:00:00 25.7 2 Nordeste 17 Sudoeste 0 1007.7 0.9 37
2017-10-14 22:00:00 26.8 13 Sudoeste 18 Sudoeste 0 1007.3 0.8 36
2017-10-14 21:00:00 27.8 11 Sur 23 Sudoeste 0 1007 0.6 35
2017-10-14 20:00:00 29 8 Sudoeste 9 Sudoeste 0 1006.8 0.2 36
2017-10-14 19:00:00 30.7 0 Calma 9 Norte 0 1006.5 -0.2 34
2017-10-14 18:00:00 32.4 0 Calma 10 Norte 0 1006.4 -0.5 33
2017-10-14 17:00:00 33.3 5 Norte 12 Nordeste 0 1006.6 -1.6 34
2017-10-14 16:00:00 31.6 5 Norte 16 Sur 0 1006.7 -2.2 35
2017-10-14 15:00:00 31 11 Sur 14 Sur 0 1006.9 -2.2 35
2017-10-14 14:00:00 31.5 6 Sudeste 18 Este 0 1008.2 -0.8 35
2017-10-14 13:00:00 29.4 10 Este 17 Este 0 1008.9 0.1 38
2017-10-14 12:00:00 26.9 7 Este 17 Este 0 1009.1 0.8 41
2017-10-14 11:00:00 24.4 6 Este 16 Oeste 0 1009 1 43
2017-10-14 10:00:00 19.5 2 Oeste 15 Oeste 0 1008.8 0.9 46
2017-10-14 09:00:00 17 0 Calma 4 Sudeste 0 1008.3 0.5 49
2017-10-14 08:00:00 17.2 4 Sur 5 Sudoeste 0 1008 0.1 48
2017-10-14 07:00:00 17.8 0 Calma 6 Sur 0 1007.9 -0.3 46
2017-10-14 06:00:00 17.8 5 Sudeste 8 Sur 0 1007.8 -0.7 46
2017-10-14 05:00:00 18 0 Calma 8 Sudeste 0 1007.9 -0.7 46
2017-10-14 04:00:00 18.6 4 Sur 8 Sudeste 0 1008.2 -0.5 46
2017-10-14 03:00:00 19.5 5 Sudeste 9 Sudeste 0 1008.5 -0.2 45
2017-10-14 02:00:00 20.9 4 Sur 9 Sudeste 0 1008.6 0.2 43
2017-10-14 01:00:00 21.5 3 Sur 7 Sur 0 1008.7 0.9 40
2017-10-14 00:00:00 22.8 0 Calma 14 Sudoeste 0 1008.7 1.4 38
2017-10-13 23:00:00 24.2 6 Sur 20 Sudoeste 0 1008.4 1.4 36
2017-10-13 22:00:00 27.3 13 Sudoeste 18 Oeste 0 1007.8 0.9 36
2017-10-13 21:00:00 28.5 13 Oeste 18 Oeste 0 1007.3 0.5 35
2017-10-13 20:00:00 29.4 11 Oeste 15 Oeste 0 1007 0.3 34
2017-10-13 19:00:00 31.8 0 Calma 9 Noroeste 0 1006.9 -0.2 33
2017-10-13 18:00:00 32.1 7 Oeste 22 Sudoeste 0 1006.8 -1 33
2017-10-13 17:00:00 33.9 16 Oeste 26 Oeste 0 1006.7 -2 32
2017-10-13 16:00:00 33.6 6 Oeste 21 Sudoeste 0 1007.1 -2.4 32
2017-10-13 15:00:00 34.5 7 Sudoeste 17 Sudeste 0 1007.8 -2 32
2017-10-13 14:00:00 31.4 4 Noroeste 9 Norte 0 1008.7 -0.9 34
2017-10-13 13:00:00 29 0 Calma 8 Este 0 1009.5 0.2 37
2017-10-13 12:00:00 25.7 0 Calma 10 Sur 0 1009.8 1 41
2017-10-13 11:00:00 23.4 0 Calma 6 Este 0 1009.6 0.8 43
2017-10-13 10:00:00 20.5 3 Sudeste 6 Este 0 1009.3 0.8 43
2017-10-13 09:00:00 17 4 Sur 6 Sur 0 1008.8 0.5 45
2017-10-13 08:00:00 17.5 0 Calma 4 Noroeste 0 1008.8 0.6 43
2017-10-13 07:00:00 18.4 3 Sur 7 Sudeste 0 1008.5 -0.1 41
2017-10-13 06:00:00 18.9 3 Sudeste 9 Sudeste 0 1008.3 -0.1 41
2017-10-13 05:00:00 19.2 6 Sudeste 9 Sudeste 0 1008.2 -0.2 40
2017-10-13 04:00:00 20 0 Calma 13 Sudoeste 0 1008.6 0.2 38
2017-10-13 03:00:00 21.1 3 Sur 18 Sur 0 1008.4 0 37
2017-10-13 02:00:00 23.4 13 Sur 23 Sur 0 1008.4 0.4 35
2017-10-13 01:00:00 24.8 13 Sur 25 Sudoeste 0 1008.4 0.5 35
2017-10-13 00:00:00 23.7 9 Sur 20 Sudoeste 0 1008.4 1.1 35
2017-10-12 23:00:00 25.2 12 Sudoeste 32 Sur 0 1008 0.8 34
2017-10-12 22:00:00 26.9 20 Sudoeste 31 Sudoeste 0 1007.9 0.8 33
2017-10-12 21:00:00 27.7 20 Sur 32 Sur 0 1007.3 0.5 33
2017-10-12 20:00:00 28.7 17 Sur 28 Sur 0 1007.2 0.1 33
2017-10-12 19:00:00 30.8 18 Sur 32 Sur 0 1007.1 -0.2 32
2017-10-12 18:00:00 32 21 Sur 31 Sur 0 1006.8 -1.2 33
2017-10-12 17:00:00 33.1 17 Sur 29 Sur 0 1007.1 -1.9 32
2017-10-12 16:00:00 33.2 9 Sudeste 20 Sudeste 0 1007.3 -1.9 33
2017-10-12 15:00:00 33.1 4 Sur 17 Sudeste 0 1008 -1.4 34
2017-10-12 14:00:00 30.2 0 Calma 9 Este 0 1009 -0.2 37
2017-10-12 13:00:00 28.2 3 Nordeste 9 Nordeste 0 1009.2 0.5 40
2017-10-12 12:00:00 24.9 3 Sudeste 8 Sudeste 0 1009.4 1.1 44
2017-10-12 11:00:00 23.3 5 Sudeste 10 Sudeste 0 1009.2 1.7 45
2017-10-12 10:00:00 21.6 0 Calma 5 Noroeste 0 1008.7 1.4 48
2017-10-12 09:00:00 19.5 0 Calma 5 Oeste 0 1008.3 1.3 50
2017-10-12 08:00:00 18.9 2 Sudeste 7 Sudeste 0 1007.5 1 49
2017-10-12 07:00:00 19.1 3 Sudeste 6 Sudeste 0 1007.3 0.7 50
2017-10-12 06:00:00 19.5 0 Calma 3 Sudoeste 0 1007 0.5 49
2017-10-12 05:00:00 19.5 0 Calma 7 Este 0 1006.5 -0.1 47
2017-10-12 04:00:00 19.8 4 Noroeste 5 Noroeste 0 1006.6 -0.2 47
2017-10-12 03:00:00 20.4 0 Calma 6 Sur 0 1006.5 -0.3 48
2017-10-12 02:00:00 21.1 4 Sudeste 10 Este 0 1006.6 -0.7 46
2017-10-12 01:00:00 21.8 6 Sudeste 15 Sudeste 0 1006.8 0.2 46
2017-10-12 00:00:00 23.7 10 Sur 19 Sur 0 1006.8 1.1 45
2017-10-11 23:00:00 25.2 7 Sudoeste 24 Sur 0 1007.3 2.4 43
2017-10-11 22:00:00 25.8 15 Sudoeste 24 Sudoeste 0 1006.6 2.2 40
2017-10-11 21:00:00 27 14 Sur 22 Sur 0 1005.7 1.5 38
2017-10-11 20:00:00 28.3 14 Sudoeste 19 Sudoeste 0 1004.9 0.7 35
2017-10-11 19:00:00 32 5 Sur 12 Sudeste 0 1004.4 0 30
2017-10-11 18:00:00 33.4 4 Sudeste 15 Este 0 1004.2 -0.7 29
2017-10-11 17:00:00 33.9 5 Sudeste 14 Sudeste 0 1004.2 -1.4 29
2017-10-11 16:00:00 33.7 2 Este 28 Sudeste 0 1004.4 -1.9 32
2017-10-11 15:00:00 32.5 6 Sudeste 19 Este 0 1004.9 -1.6 36
2017-10-11 14:00:00 30.4 9 Este 20 Este 0 1005.6 -1.1 40
2017-10-11 13:00:00 28.5 13 Este 26 Este 0 1006.3 -0.2 44
2017-10-11 12:00:00 27.3 13 Este 20 Este 0 1006.5 0.6 47
2017-10-11 11:00:00 23.4 9 Este 17 Este 0 1006.7 1.4 57
2017-10-11 10:00:00 19.3 4 Sudeste 8 Sudeste 0 1006.5 1.2 63
2017-10-11 09:00:00 15.1 0 Calma 5 Sur 0 1005.9 0.8 72
2017-10-11 08:00:00 14.6 0 Calma 3 Sudoeste 0 1005.3 0.1 71
2017-10-11 07:00:00 14.9 0 Calma 10 Sudeste 0 1005.3 -0.2 71
2017-10-11 06:00:00 14.9 6 Sudeste 8 Sudeste 0 1005.1 -0.5 69
2017-10-11 05:00:00 15.6 5 Sudeste 9 Sudeste 0 1005.2 -0.1 68
2017-10-11 04:00:00 16.4 6 Sudeste 8 Sudeste 0 1005.5 0.3 64
2017-10-11 03:00:00 17 4 Sudeste 10 Sudeste 0 1005.6 0.6 61
2017-10-11 02:00:00 17.8 2 Este 11 Sur 0 1005.3 0.8 56
2017-10-11 01:00:00 18.9 0 Calma 7 Sudeste 0 1005.2 1.3 54
2017-10-11 00:00:00 19.3 3 Sudeste 8 Sur 0 1005 1.7 52
2017-10-10 23:00:00 20.9 6 Sudeste 12 Sudoeste 0 1004.5 2 51
2017-10-10 22:00:00 23.5 10 Sudoeste 13 Sudoeste 0 1003.9 1.8 45
2017-10-10 21:00:00 25.7 9 Sudoeste 15 Sudoeste 0 1003.3 1.5 39
2017-10-10 20:00:00 27.1 3 Noroeste 17 Noroeste 0 1002.5 0.4 36
2017-10-10 19:00:00 30.3 4 Noroeste 13 Oeste 0 1002.1 -0.3 35
2017-10-10 18:00:00 32.2 3 Sur 17 Noroeste 0 1001.8 -1.3 35
2017-10-10 17:00:00 32.2 3 Noroeste 21 Sudoeste 0 1002.1 -2 35
2017-10-10 16:00:00 32 2 Sudeste 21 Oeste 0 1002.4 -2.4 35
2017-10-10 15:00:00 31.1 5 Sudeste 12 Sudeste 0 1003.1 -1.9 41
2017-10-10 14:00:00 29.4 0 Calma 9 Sudeste 0 1004.1 -1 44
2017-10-10 13:00:00 26.6 3 Noroeste 9 Sudeste 0 1004.8 -0.2 51
2017-10-10 12:00:00 25.1 3 Este 9 Sudeste 0 1005 0.8 55
2017-10-10 11:00:00 21.7 3 Este 6 Sudeste 0 1005.1 1.3 60
2017-10-10 10:00:00 18.6 3 Sudeste 5 Sudeste 0 1005 1.5 66
2017-10-10 09:00:00 15.4 0 Calma 5 Sudeste 0 1004.2 0.9 74
2017-10-10 08:00:00 14.3 0 Calma 5 Sudoeste 0 1003.8 0.6 73
2017-10-10 07:00:00 14.8 0 Calma 5 Sudeste 0 1003.5 0.2 70
2017-10-10 06:00:00 15.5 2 Sur 5 Sur 0 1003.3 -0.1 70
2017-10-10 05:00:00 16.1 4 Sur 7 Sur 0 1003.2 -0.1 68
2017-10-10 04:00:00 16.9 3 Sur 8 Sur 0 1003.3 -0.3 66
2017-10-10 03:00:00 17.4 0 Calma 8 Sur 0 1003.4 0.1 65
2017-10-10 02:00:00 18.2 4 Sur 11 Sur 0 1003.3 0.1 60
2017-10-10 01:00:00 19.6 5 Sudeste 20 Sudoeste 0 1003.6 1.2 55
2017-10-10 00:00:00 22.8 16 Sudoeste 24 Sudoeste 0 1003.3 1.3 54
2017-10-09 23:00:00 23.9 15 Sudoeste 21 Sudoeste 0 1003.2 1.6 48
2017-10-09 22:00:00 25.1 15 Oeste 24 Oeste 0 1002.4 1 38
2017-10-09 21:00:00 24.9 11 Oeste 15 Oeste 0 1002 0.6 36
2017-10-09 20:00:00 27.2 8 Sudoeste 9 Sudoeste 0 1001.6 -0.2 33
2017-10-09 19:00:00 30.9 5 Sudoeste 12 Sudoeste 0 1001.4 -0.8 32
2017-10-09 18:00:00 32.3 4 Sur 17 Sudoeste 0 1001.4 -1.6 32
2017-10-09 17:00:00 32.8 5 Sur -- -- 0 1001.8 -2.2 34
2017-10-09 16:00:00 32 2 Sur 11 Noroeste 0 1002.2 -2.4 38
2017-10-09 15:00:00 30.2 5 Noroeste 11 Norte 0 1003 -2 45
2017-10-09 14:00:00 28 3 Nordeste 10 Norte 0 1004 -1.1 54
2017-10-09 13:00:00 26 5 Nordeste 10 Nordeste 0 1004.6 -0.4 63
2017-10-09 12:00:00 24 4 Nordeste 8 Este 0 1005 0.4 69
2017-10-09 11:00:00 21.7 2 Sudeste 7 Sudeste 0 1005.1 1.1 71
2017-10-09 10:00:00 18.2 4 Sudeste 8 Sudeste 0 1005 1.1 76
2017-10-09 09:00:00 15.4 0 Calma 7 Sur 0 1004.6 1 81
2017-10-09 08:00:00 15 3 Sur 5 Sudeste 0 1004 0.5 80
2017-10-09 07:00:00 15.3 0 Calma 8 Sudeste 0 1003.9 0.3 81
2017-10-09 06:00:00 16.1 4 Sur 6 Sudeste 0 1003.6 -0.1 80
2017-10-09 05:00:00 17.3 0 Calma 5 Este 0 1003.5 0 76
2017-10-09 04:00:00 17.7 0 Calma 6 Este 0 1003.6 0.1 71
2017-10-09 03:00:00 18.3 4 Sudeste 17 Sudoeste 0 1003.7 0.2 66
2017-10-09 02:00:00 19.9 11 Sudoeste 17 Sudoeste 0 1003.5 0.3 64
2017-10-09 01:00:00 19.8 5 Sudoeste 10 Sudoeste 0 1003.5 0.9 55
2017-10-09 00:00:00 22.4 11 Sudoeste 18 Sudoeste 0 1003.5 1.3 52
2017-10-08 23:00:00 22.1 0 Calma 13 Sudoeste 0 1003.2 1.3 49
2017-10-08 22:00:00 23 7 Sur 14 Sur 0 1002.6 0.9 46
2017-10-08 21:00:00 25.7 5 Sudoeste 8 Sudoeste 0 1002.2 0.4 45
2017-10-08 20:00:00 27.4 5 Sur 6 Sudeste 0 1001.9 -0.1 44
2017-10-08 19:00:00 30.3 3 Sur 8 Sur 0 1001.7 -0.8 41
2017-10-08 18:00:00 30.9 6 Este 14 Noroeste 0 1001.8 -1.6 41
2017-10-08 17:00:00 31.1 4 Este 14 Sudeste 0 1002 -2.4 42
2017-10-08 16:00:00 30.4 5 Nordeste 15 Este 0 1002.5 -2.6 44
2017-10-08 15:00:00 29.2 2 Norte 12 Sur 0 1003.4 -1.7 46
2017-10-08 14:00:00 29.1 6 Sur 24 Norte 0 1004.4 -0.9 49
2017-10-08 13:00:00 27.8 6 Sudeste 18 Este 0 1005.1 0 53
2017-10-08 12:00:00 25.5 5 Este 17 Este 0 1005.1 0.6 60
2017-10-08 11:00:00 23.5 3 Este 8 Sudeste 0 1005.3 1 66
2017-10-08 10:00:00 20.9 0 Calma 5 Nordeste 0 1005.1 1 72
2017-10-08 09:00:00 18.2 2 Norte 8 Noroeste 0 1004.5 0.6 77
2017-10-08 08:00:00 17.3 3 Noroeste 4 Norte 0 1004.3 0.4 78
2017-10-08 07:00:00 18.1 0 Calma 19 Sur 0 1004.1 0.2 74
2017-10-08 06:00:00 19.7 11 Sur 21 Sur 0 1003.9 -0.1 72
2017-10-08 05:00:00 20 13 Sur 20 Sudoeste 0 1003.9 -0.4 70
2017-10-08 04:00:00 20.2 12 Sudoeste 21 Sudoeste 0 1003.9 -0.4 68
2017-10-08 03:00:00 20.3 13 Sur 19 Sur 0 1004 0.1 68
2017-10-08 02:00:00 21.1 10 Sudoeste 19 Sudoeste 0 1004.3 1 67
2017-10-08 01:00:00 21.7 14 Sudoeste 22 Sudoeste 0 1004.3 1.8 64
2017-10-08 00:00:00 22.2 14 Sudoeste 21 Sur 0 1003.9 1.9 61
2017-10-07 23:00:00 22.6 14 Sur 26 Sudoeste 0 1003.3 1.8 58
2017-10-07 22:00:00 23.3 18 Sudoeste 32 Sudoeste 0 1002.5 1.5 55
2017-10-07 21:00:00 24.4 19 Sudoeste 31 Sudoeste 0 1002 1.3 50
2017-10-07 20:00:00 25.8 20 Sur 31 Sur 0 1001.5 0.8 46
2017-10-07 19:00:00 28.4 18 Sur 31 Sur 0 1001 0.1 43
2017-10-07 18:00:00 30.5 20 Sur 30 Sur 0 1000.7 -0.9 41
2017-10-07 17:00:00 32 14 Sur 29 Sudeste 0 1000.7 -1.5 41
2017-10-07 16:00:00 32.3 15 Sur 30 Sur 0 1000.9 -1.8 41
2017-10-07 15:00:00 32.2 15 Sur 27 Sur 0 1001.6 -1.4 43
2017-10-07 14:00:00 31.6 12 Sur 23 Sur 0 1002.2 -0.7 45
2017-10-07 13:00:00 29.2 5 Este 14 Este 0 1002.7 0.2 49
2017-10-07 12:00:00 27.2 7 Este 15 Sudeste 0 1003 0.8 52
2017-10-07 11:00:00 23.4 6 Nordeste 11 Este 0 1002.9 1 57
2017-10-07 10:00:00 20.6 4 Sudeste 7 Sudeste 0 1002.5 0.8 61
2017-10-07 09:00:00 17.5 0 Calma 5 Sudeste 0 1002.2 0.7 68
2017-10-07 08:00:00 16.8 0 Calma 4 Sudeste 0 1001.9 0.5 67
2017-10-07 07:00:00 17.4 2 Sur 6 Sur 0 1001.7 -0.1 66
2017-10-07 06:00:00 17.5 0 Calma 6 Sudeste 0 1001.5 -0.2 65
2017-10-07 05:00:00 18.3 2 Sur 8 Sudeste 0 1001.4 -0.3 65
2017-10-07 04:00:00 19.4 3 Sudeste 9 Este 0 1001.8 -0.2 62
2017-10-07 03:00:00 21.9 9 Sudoeste 22 Sudoeste 0 1001.7 -0.2 54
2017-10-07 02:00:00 22.5 17 Sudoeste 23 Sudoeste 0 1001.7 0.4 53
2017-10-07 01:00:00 22.3 5 Sudoeste 22 Sudoeste 0 1002 1.1 52
2017-10-07 00:00:00 24 17 Sudoeste 30 Oeste 0 1001.9 1.1 49
2017-10-06 23:00:00 25.7 19 Oeste 32 Sudoeste 0 1001.3 1.1 47
2017-10-06 22:00:00 27.5 19 Oeste 30 Oeste 0 1000.9 0.6 44
2017-10-06 21:00:00 28.2 14 Oeste 21 Oeste 0 1000.8 0.2 38
2017-10-06 20:00:00 30.3 8 Oeste 12 Sudoeste 0 1000.2 -0.7 36
2017-10-06 19:00:00 33.1 3 Oeste 12 Noroeste 0 1000.3 -1.1 35
2017-10-06 18:00:00 34 5 Noroeste 23 Sudoeste 0 1000.6 -1.8 35
2017-10-06 17:00:00 34.7 3 Sudoeste 18 Oeste 0 1000.9 -2.5 36
2017-10-06 16:00:00 33.4 5 Oeste 20 Norte 0 1001.4 -2.6 38
2017-10-06 15:00:00 32.5 0 Calma 13 Nordeste 0 1002.4 -2.4 39
2017-10-06 14:00:00 30.3 3 Nordeste 13 Este 0 1003.4 -1.3 41
2017-10-06 13:00:00 28 3 Sudoeste 8 Sudoeste 0 1004 -0.5 45
2017-10-06 12:00:00 25.1 2 Noroeste 8 Sudoeste 0 1004.8 0.7 53
2017-10-06 11:00:00 22.3 3 Sudeste 7 Sudeste 0 1004.7 0.6 61
2017-10-06 10:00:00 19 2 Este 6 Sur 0 1004.5 0.8 68
2017-10-06 09:00:00 15.5 0 Calma 4 Sur 0 1004.1 0.5 72
2017-10-06 08:00:00 14 3 Norte 5 Norte 0 1004.1 0.4 71
2017-10-06 07:00:00 14.7 3 Sudoeste 6 Sur 0 1003.7 -0.3 72
2017-10-06 06:00:00 15.6 3 Sur 8 Sur 0 1003.6 -0.6 72
2017-10-06 05:00:00 16.1 0 Calma 8 Sur 0 1003.7 -0.7 71
2017-10-06 04:00:00 16.7 5 Sur 8 Sur 0 1004 -0.5 67
2017-10-06 03:00:00 17.7 0 Calma 5 Noroeste 0 1004.2 -0.2 60
2017-10-06 02:00:00 19.1 0 Calma 9 Oeste 0 1004.4 0.1 58
2017-10-06 01:00:00 20 9 Sur 13 Sur 0 1004.5 0.7 55
2017-10-06 00:00:00 21.2 9 Sur 15 Sur 0 1004.4 1.1 53
2017-10-05 23:00:00 22.3 5 Sur 18 Sudoeste 0 1004.3 1.3 51
2017-10-05 22:00:00 24 14 Sudoeste 21 Sudoeste 0 1003.8 0.8 49
2017-10-05 21:00:00 24.8 13 Sur 24 Sudoeste 0 1003.3 0.2 48
2017-10-05 20:00:00 27.5 12 Sur 21 Sur 0 1003 -0.3 45
2017-10-05 19:00:00 30.1 13 Sur 19 Sur 0 1003 -1 43
2017-10-05 18:00:00 31.7 7 Sur 18 Sudoeste 0 1003.1 -1.7 40
2017-10-05 17:00:00 32 9 Sur 20 Sudeste 0 1003.3 -2.6 41
2017-10-05 16:00:00 31.7 14 Sudeste 27 Sudeste 0 1004 -2.7 42
2017-10-05 15:00:00 30.5 2 Sudoeste 22 Sur 0 1004.8 -2.5 46
2017-10-05 14:00:00 29.5 3 Este 21 Este 0 1005.9 -1.5 51
2017-10-05 13:00:00 27.9 9 Sudeste 21 Sudeste 0 1006.7 -0.4 55
2017-10-05 12:00:00 26.1 10 Sudeste 22 Este 0 1007.3 0.4 62
2017-10-05 11:00:00 24 10 Este 14 Este 0 1007.4 0.5 68
2017-10-05 10:00:00 20.3 8 Este 12 Este 0 1007.1 0.6 77
2017-10-05 09:00:00 17.9 2 Sudeste 5 Sudoeste 0 1006.9 0.4 81
2017-10-05 08:00:00 16.7 0 Calma 8 Sudeste 0 1006.9 0.6 79
2017-10-05 07:00:00 17.5 2 Noroeste 5 Noroeste 0 1006.5 -0.2 77
2017-10-05 06:00:00 18 0 Calma 6 Sudoeste 0 1006.5 -0.4 76
2017-10-05 05:00:00 18.7 0 Calma 6 Noroeste 0 1006.3 -0.8 74
2017-10-05 04:00:00 19.2 0 Calma 6 Sudeste 0 1006.7 -0.5 74
2017-10-05 03:00:00 20.2 3 Sur 19 Sur 0 1006.9 0.1 72
2017-10-05 02:00:00 21.5 12 Sur 18 Sudoeste 0 1007.1 0.4 67
2017-10-05 01:00:00 21.4 6 Sur 18 Sur 0 1007.2 0.9 66
2017-10-05 00:00:00 22.4 11 Sur 16 Sur 0 1006.8 1.1 64
2017-10-04 23:00:00 22.8 9 Sur 25 Sur 0 1006.7 1.6 63
2017-10-04 22:00:00 23.5 17 Sur 33 Sur 0 1006.3 1.3 60
2017-10-04 21:00:00 24.1 20 Sur 35 Sur 0 1005.7 0.7 57
2017-10-04 20:00:00 25.3 18 Sur 37 Sur 0 1005.1 0.1 53
2017-10-04 19:00:00 27.5 23 Sur 37 Sur 0 1005 0 49
2017-10-04 18:00:00 29.6 22 Sur 32 Sur 0 1005 -0.2 48
2017-10-04 17:00:00 30.9 21 Sur 33 Sur 0 1005 -1.1 47
2017-10-04 16:00:00 31.4 17 Sur 33 Sur 0 1005 -1.6 47
2017-10-04 15:00:00 31.1 15 Sur 26 Sudoeste 0 1005.2 -1.6 49
2017-10-04 14:00:00 30.4 11 Sur 22 Sur 0 1006.1 -0.9 51
2017-10-04 13:00:00 29 7 Este 20 Sudeste 0 1006.6 0 55
2017-10-04 12:00:00 27.5 6 Sur 15 Sudeste 0 1006.8 0.8 57
2017-10-04 11:00:00 25.2 6 Sudeste 13 Sudeste 0 1007 1.7 62
2017-10-04 10:00:00 23 2 Este 12 Sur 0 1006.6 1.7 66
2017-10-04 09:00:00 20.8 10 Sur 14 Sudoeste 0 1006 1.3 73
2017-10-04 08:00:00 19.9 9 Sudeste 21 Sur 0 1005.3 0.6 69
2017-10-04 07:00:00 21.5 12 Sur 22 Sur 0 1004.9 0.2 68
2017-10-04 06:00:00 21.5 14 Sur 23 Sur 0 1004.7 0 68
2017-10-04 05:00:00 21.7 14 Sur 26 Sudoeste 0 1004.7 -0.1 67
2017-10-04 04:00:00 21.2 12 Sudoeste 18 Sudoeste 0 1004.7 -0.5 66
2017-10-04 03:00:00 21.5 10 Sudoeste 13 Sudoeste 0 1004.7 0 63
2017-10-04 02:00:00 21.9 10 Sudoeste 17 Sur 0 1004.8 0.3 61
2017-10-04 01:00:00 22.7 12 Sur 21 Sur 0 1005.2 1.4 60
2017-10-04 00:00:00 23.1 11 Sur 17 Sudoeste 0 1004.7 1.6 59
2017-10-03 23:00:00 24 11 Sur 23 Sudoeste 0 1004.5 1.8 56
2017-10-03 22:00:00 25 17 Sudoeste 29 Sur 0 1003.8 1.3 53
2017-10-03 21:00:00 26.1 17 Sur 26 Sur 0 1003.1 0.6 49
2017-10-03 20:00:00 28.2 10 Sur 18 Sur 0 1002.7 0 46
2017-10-03 19:00:00 30.7 9 Sur 14 Sur 0 1002.5 -1 44
2017-10-03 18:00:00 32.1 3 Sur 13 Sur 0 1002.5 -1.9 42
2017-10-03 17:00:00 31.5 5 Nordeste 15 Sudeste 0 1002.7 -2.8 43
2017-10-03 16:00:00 32 4 Sur 17 Este 0 1003.5 -2.7 44
2017-10-03 15:00:00 30.5 7 Este 21 Sudeste 0 1004.4 -2.3 47
2017-10-03 14:00:00 29.6 9 Sudeste 19 Sudeste 0 1005.5 -1.3 49
2017-10-03 13:00:00 28.7 6 Sudeste 21 Sudeste 0 1006.2 -0.3 55
2017-10-03 12:00:00 26.6 8 Sur 13 Este 0 1006.7 0.4 60
2017-10-03 11:00:00 24.2 4 Sur 10 Sudeste 0 1006.8 1 67
2017-10-03 10:00:00 21.4 3 Este 6 Este 0 1006.5 1.2 74
2017-10-03 09:00:00 17.9 2 Sur 4 Sudoeste 0 1006.3 1 81
2017-10-03 08:00:00 16.9 2 Sur 6 Sur 0 1005.8 0.5 79
2017-10-03 07:00:00 17.2 0 Calma 5 Sur 0 1005.3 -0.5 77
2017-10-03 06:00:00 17.3 4 Sudeste 5 Sudeste 0 1005.3 -0.4 74
2017-10-03 05:00:00 18.4 2 Sudoeste 7 Sur 0 1005.3 -0.6 72
2017-10-03 04:00:00 19.4 6 Sur 15 Sur 0 1005.8 -0.3 70
2017-10-03 03:00:00 20.7 12 Sur 18 Sur 0 1005.7 -0.1 67
2017-10-03 02:00:00 21 11 Sur 17 Sur 0 1005.9 0.2 66
2017-10-03 01:00:00 21.3 12 Sudoeste 21 Sudoeste 0 1006.1 1 64
2017-10-03 00:00:00 22 15 Sur 26 Sur 0 1005.8 1.3 62
2017-10-02 23:00:00 22.4 10 Sur 19 Sur 0 1005.7 1.8 59
2017-10-02 22:00:00 23.5 14 Sur 31 Sur 0 1005.1 1.9 57
2017-10-02 21:00:00 25.2 20 Sudoeste 31 Sudoeste 0 1004.5 1.6 53
2017-10-02 20:00:00 28 17 Sur 28 Sur 0 1003.9 0.6 48
2017-10-02 19:00:00 30.8 14 Sur 32 Este 0 1003.2 -0.9 43
2017-10-02 18:00:00 32.6 11 Este 27 Este 0 1002.9 -2 40
2017-10-02 17:00:00 32.4 13 Este 49 Este 0.1 1003.3 -2.7 40
2017-10-02 16:00:00 32.2 7 Este 31 Sudeste 0 1004.1 -2.6 43
2017-10-02 15:00:00 31.5 13 Este 27 Este 0 1004.9 -2.1 45
2017-10-02 14:00:00 29.7 9 Sudeste 23 Este 0 1006 -1.1 50
2017-10-02 13:00:00 28.3 11 Este 21 Este 0 1006.7 0 55
2017-10-02 12:00:00 27 8 Este 17 Este 0 1007 0.6 61
2017-10-02 11:00:00 24.7 4 Este 10 Nordeste 0 1007.1 1.2 68
2017-10-02 10:00:00 21.8 4 Sudeste 7 Sudeste 0 1006.7 0.8 74
2017-10-02 09:00:00 18.7 2 Sudeste 8 Sudeste 0 1006.4 0.9 81
2017-10-02 08:00:00 17.9 2 Sudeste 10 Este 0 1005.9 0.5 76
2017-10-02 07:00:00 18.4 2 Noroeste 4 Oeste 0 1005.9 0.7 75
2017-10-02 06:00:00 18.6 0 Calma 9 Sur 0 1005.5 0.3 75
2017-10-02 05:00:00 19.7 6 Sur 17 Sur 0 1005.4 0.4 74
2017-10-02 04:00:00 19.6 9 Sur 18 Sur 0 1005.2 0.2 71
2017-10-02 03:00:00 19.2 3 Sur 13 Sudoeste 0 1005.2 0.6 61
2017-10-02 02:00:00 20.6 0 Calma 7 Sur 0 1005 0.5 58
2017-10-02 01:00:00 21.7 0 Calma 3 Sudeste 0 1005 1.3 51
2017-10-02 00:00:00 23.2 0 Calma 13 Sudeste 0 1004.6 1.9 49
2017-10-01 23:00:00 24.9 9 Sudeste 12 Sudeste 0 1004.5 2.3 46
2017-10-01 22:00:00 25.9 3 Noroeste 10 Este 0 1003.7 1.7 42
2017-10-01 21:00:00 27.8 5 Noroeste 7 Noroeste 0 1002.7 0.9 39
2017-10-01 20:00:00 30.4 0 Calma 3 Oeste 0 1002.2 0.2 38
2017-10-01 19:00:00 32.2 0 Calma 11 Sudeste 0 1002 -0.3 38
2017-10-01 18:00:00 31.9 7 Sudeste 15 Este 0 1001.8 -1.4 38
2017-10-01 17:00:00 32.5 5 Este 15 Nordeste 0 1002 -1.8 38
2017-10-01 16:00:00 33 6 Este 15 Este 0 1002.3 -1.8 40
2017-10-01 15:00:00 32.2 6 Este 17 Este 0 1003.2 -1.3 42
2017-10-01 14:00:00 31 4 Sudeste 14 Este 0 1003.8 -0.7 46
2017-10-01 13:00:00 28.9 8 Sudeste 17 Este 0 1004.1 -0.3 51
2017-10-01 12:00:00 26.4 8 Este 13 Nordeste 0 1004.5 0.6 57
2017-10-01 11:00:00 23.1 2 Nordeste 8 Este 0 1004.5 1 65
2017-10-01 10:00:00 19.8 0 Calma 4 Sudeste 0 1004.4 1.3 70
2017-10-01 09:00:00 17.5 0 Calma 5 Sur 0 1003.9 1.2 74
2017-10-01 08:00:00 17 0 Calma 5 Sudeste 0 1003.5 1.2 74
2017-10-01 07:00:00 17.7 2 Sur 5 Sur 0 1003.1 0.5 70
2017-10-01 06:00:00 18.2 0 Calma 4 Oeste 0 1002.7 -0.1 67
2017-10-01 05:00:00 18.3 3 Sudeste 6 Sudeste 0 1002.3 -0.2 67
2017-10-01 04:00:00 19.5 3 Sudeste 6 Sudeste 0 1002.6 0.2 64
2017-10-01 03:00:00 21.1 0 Calma 8 Oeste 0 1002.8 0.2 61
2017-10-01 02:00:00 21.6 2 Sur 13 Sudoeste 0 1002.5 0.2 60
2017-10-01 01:00:00 22.8 9 Sudoeste 19 Sudoeste 0 1002.4 0.4 57
2017-10-01 00:00:00 24.3 14 Sudoeste 19 Sudoeste 0 1002.6 1.2 52
2017-09-30 23:00:00 26 14 Oeste 22 Oeste 0 1002.3 0.9 49
2017-09-30 22:00:00 26.5 10 Oeste 15 Oeste 0 1002 0.9 44
2017-09-30 21:00:00 26.7 9 Oeste 12 Sudoeste 0 1001.4 0.3 42
2017-09-30 20:00:00 29.3 6 Sudoeste 10 Oeste 0 1001.4 -0.3 41
2017-09-30 19:00:00 31.3 6 Sudoeste 12 Sudoeste 0 1001.1 -1.2 41
2017-09-30 18:00:00 32.1 5 Sudoeste 14 Noroeste 0 1001.1 -2.2 41
2017-09-30 17:00:00 32.4 0 Calma 15 Noroeste 0 1001.7 -2.6 43
2017-09-30 16:00:00 31 4 Norte 13 Este 0 1002.3 -2.9 46
2017-09-30 15:00:00 29.5 4 Nordeste 12 Este 0 1003.3 -2.7 51
2017-09-30 14:00:00 28.2 6 Este 11 Nordeste 0 1004.3 -1.8 55
2017-09-30 13:00:00 26.2 3 Noroeste 11 Noroeste 0 1005.2 -0.7 57
2017-09-30 12:00:00 25.2 2 Oeste 8 Oeste 0 1006 0 61
2017-09-30 11:00:00 23.3 0 Calma 5 Este 0 1006.1 0.4 67
2017-09-30 10:00:00 20.4 3 Sudeste 5 Sudeste 0 1005.9 0.6 72
2017-09-30 09:00:00 16.8 2 Sur 8 Sudoeste 0 1006 0.7 80
2017-09-30 08:00:00 16.2 3 Sudoeste 7 Sudoeste 0 1005.7 0.5 79
2017-09-30 07:00:00 17 0 Calma 4 Noroeste 0 1005.3 0 78
2017-09-30 06:00:00 17.6 0 Calma 3 Oeste 0 1005.3 -0.1 76
2017-09-30 05:00:00 17.8 0 Calma 5 Sur 0 1005.2 0.1 74
2017-09-30 04:00:00 18.4 3 Sudoeste 12 Sudoeste 0 1005.3 -0.1 71
2017-09-30 03:00:00 19.9 5 Sur 19 Sur 0 1005.4 0.3 67
2017-09-30 02:00:00 21.1 6 Sur 20 Sudoeste 0 1005.1 0.1 65
2017-09-30 01:00:00 22.2 10 Sudoeste 20 Sudoeste 0 1005.4 1.2 60
2017-09-30 00:00:00 23 11 Sudoeste 25 Sudoeste 0 1005.1 1.1 59
2017-09-29 23:00:00 23.2 16 Sudoeste 23 Sudoeste 0 1005 1.6 60
2017-09-29 22:00:00 24.2 11 Sudoeste 19 Sudoeste 0 1004.2 1 56
2017-09-29 21:00:00 26.1 11 Sur 20 Sudoeste 0 1004 0.8 50
2017-09-29 20:00:00 28.2 7 Sur 14 Sur 0 1003.4 -0.2 46
2017-09-29 19:00:00 30.3 5 Sur 15 Sur 0 1003.2 -1.1 45
2017-09-29 18:00:00 30.4 5 Noroeste 12 Oeste 0 1003.2 -2 45
2017-09-29 17:00:00 31.3 6 Sudoeste 15 Sur 0 1003.6 -2.6 45
2017-09-29 16:00:00 30.8 8 Sur 18 Este 0 1004.3 -2.5 47
2017-09-29 15:00:00 29.8 8 Sudeste 14 Sudeste 0 1005.2 -2.2 49
2017-09-29 14:00:00 28.9 3 Sudoeste 17 Sudeste 0 1006.2 -1.2 52
2017-09-29 13:00:00 27.8 6 Sur 16 Sur 0 1006.8 -0.2 56
2017-09-29 12:00:00 26.9 5 Sudeste 14 Este 0 1007.4 0.8 61
2017-09-29 11:00:00 24.5 3 Sudeste 10 Sudeste 0 1007.4 1.3 67
2017-09-29 10:00:00 20.9 6 Sudeste 9 Sudeste 0 1007 1.4 77
2017-09-29 09:00:00 18.7 3 Sur 6 Oeste 0 1006.6 1 79
2017-09-29 08:00:00 18.6 0 Calma 10 Sur 0 1006.1 0.1 79
2017-09-29 07:00:00 19.8 7 Sur 14 Sur 0 1005.6 -1 76
2017-09-29 06:00:00 20.2 10 Sudoeste 15 Sudoeste 0 1005.6 -1.4 74
2017-09-29 05:00:00 20.9 12 Sudoeste 20 Sudoeste 0 1006 -1 71
2017-09-29 04:00:00 21.5 11 Sudoeste 21 Sudoeste 0 1006.6 0 66
2017-09-29 03:00:00 21.8 13 Sudoeste 25 Sur 0 1007 0.4 61
2017-09-29 02:00:00 22.5 13 Sur 28 Sudoeste 0 1007 0.3 57
2017-09-29 01:00:00 22.9 19 Sur 32 Sudoeste 0 1006.6 0.4 56
2017-09-29 00:00:00 23.4 18 Sur 32 Sur 0 1006.6 1 55
2017-09-28 23:00:00 23.8 19 Sur 36 Sur 0 1006.7 1.7 49
2017-09-28 22:00:00 24 17 Sudoeste 27 Sudoeste 0 1006.2 1.4 45
2017-09-28 21:00:00 25.1 17 Sudoeste 27 Sudoeste 0 1005.6 0.9 45
2017-09-28 20:00:00 26.1 15 Sur 25 Sudoeste 0 1005 0.2 46
2017-09-28 19:00:00 28 12 Sur 26 Sudoeste 0 1004.8 -0.5 45
2017-09-28 18:00:00 28.7 17 Sur 29 Sur 0 1004.7 -1.3 45
2017-09-28 17:00:00 29.8 5 Sudoeste 18 Sudeste 0 1004.8 -1.9 45
2017-09-28 16:00:00 29.7 9 Sudeste 19 Sudeste 0 1005.3 -1.9 47
2017-09-28 15:00:00 29.9 8 Sur 16 Sudeste 0 1006 -1.5 49
2017-09-28 14:00:00 28.7 7 Sur 15 Sur 0 1006.7 -0.8 55
2017-09-28 13:00:00 26.7 6 Este 13 Sudeste 0 1007.2 0.1 63
2017-09-28 12:00:00 24.6 3 Sudeste 8 Sudeste 0 1007.5 0.7 71
2017-09-28 11:00:00 22.4 3 Nordeste 5 Este 0 1007.5 1.2 76
2017-09-28 10:00:00 20.8 0 Calma 6 Norte 0 1007.1 1.1 78
2017-09-28 09:00:00 19.6 3 Norte 5 Sudoeste 0 1006.8 1.1 78
2017-09-28 08:00:00 19.5 3 Sudoeste 6 Sudoeste 0 1006.3 0.9 78
2017-09-28 07:00:00 19.5 0 Calma -- -- -- 1006 0.2 78
2017-09-28 06:00:00 19.3 0 Calma 6 Sudoeste 0 1005.7 -0.4 78
2017-09-28 05:00:00 19.5 0 Calma 4 Nordeste 0 1005.4 -0.7 77
2017-09-28 04:00:00 19.9 0 Calma 5 Sur 0 1005.8 -0.2 75
2017-09-28 03:00:00 20.7 0 Calma 10 Sudoeste 0 1006.1 0.1 71
2017-09-28 02:00:00 22.1 10 Sudoeste 15 Sudoeste 0 1006.1 0.2 70
2017-09-28 01:00:00 22.1 3 Sur 7 Sur 0 1006 0.5 69
2017-09-28 00:00:00 22.8 4 Sur 9 Sudoeste 0 1006 1.4 67
2017-09-27 23:00:00 23.2 8 Sudoeste 17 Sudoeste 0 1005.9 1.9 66
2017-09-27 22:00:00 23.6 12 Sudoeste 17 Sur 0 1005.5 1.8 64
2017-09-27 21:00:00 24.4 2 Noroeste 6 Noroeste 0 1004.6 0.8 61
2017-09-27 20:00:00 25.3 0 Calma 7 Nordeste 0 1004 0 62
2017-09-27 19:00:00 25.6 2 Noroeste 11 Sur 0 1003.7 -0.7 61
2017-09-27 18:00:00 26.6 3 Sudoeste 12 Sudoeste 0 1003.8 -0.8 61
2017-09-27 17:00:00 25.8 4 Sudoeste 15 Sudoeste 0 1004 -0.8 61
2017-09-27 16:00:00 25.2 9 Sudoeste 24 Oeste 0 1004.4 -1 60
2017-09-27 15:00:00 24.9 15 Oeste 35 Sudoeste 0 1004.6 -1.3 60
2017-09-27 14:00:00 25.7 6 Sudeste 14 Este 0 1004.8 -1.1 63
2017-09-27 13:00:00 23.8 4 Sudeste 9 Sudeste 0 1005.4 -0.3 60
2017-09-27 12:00:00 21.6 3 Sudeste 6 Este 0 1005.9 0.7 58
2017-09-27 11:00:00 19.5 2 Norte 5 Norte 0 1005.9 0.8 60
2017-09-27 10:00:00 17.7 0 Calma 6 Sur 0 1005.7 1 58
2017-09-27 09:00:00 14.6 0 Calma 3 Sudoeste 0 1005.2 0.8 63
2017-09-27 08:00:00 14.1 0 Calma 4 Sur 0 1005.1 0.8 63
2017-09-27 07:00:00 14 2 Sudeste 8 Sudeste 0 1004.7 0.3 63
2017-09-27 06:00:00 14 4 Sur 6 Sudeste 0 1004.4 0 64
2017-09-27 05:00:00 15 0 Calma 4 Sudoeste 0 1004.3 0 66
2017-09-27 04:00:00 15.1 0 Calma 7 Sudeste 0 1004.4 0.1 67
2017-09-27 03:00:00 15.2 0 Calma 12 Sudoeste 0 1004.4 0.2 58
2017-09-27 02:00:00 16.3 8 Sudoeste 12 Sudoeste 0 1004.3 0.4 55
2017-09-27 01:00:00 18.1 6 Oeste 10 Sudoeste 0 1004.3 1.3 52
2017-09-27 00:00:00 19 3 Este 9 Sudoeste 0 1004.2 1.9 45
2017-09-26 23:00:00 21.4 6 Sudoeste 29 Oeste 0 1003.9 2.5 41
2017-09-26 22:00:00 23.2 14 Oeste 31 Sudoeste 0 1003 1.9 33
2017-09-26 21:00:00 25 19 Oeste 36 Oeste 0 1002.3 1.5 32
2017-09-26 20:00:00 27.7 13 Oeste 19 Sudoeste 0 1001.4 0.4 30
2017-09-26 19:00:00 30.7 12 Oeste 21 Oeste 0 1001.1 -0.4 29
2017-09-26 18:00:00 32 9 Oeste 18 Oeste 0 1000.8 -1.5 28
2017-09-26 17:00:00 31.7 10 Oeste 22 Oeste 0 1001 -2.3 29
2017-09-26 16:00:00 30.9 4 Este 16 Noroeste 0 1001.5 -2.4 32
2017-09-26 15:00:00 30.1 3 Este 13 Sudeste 0 1002.3 -1.9 33
2017-09-26 14:00:00 29.1 3 Noroeste 11 Noroeste 0 1003.3 -0.9 36
2017-09-26 13:00:00 27.6 4 Sur 9 Sur 0 1003.9 -0.2 42
2017-09-26 12:00:00 24.2 0 Calma 9 Este 0 1004.2 0.5 50
2017-09-26 11:00:00 21.2 3 Nordeste 6 Este 0 1004.2 0.8 60
2017-09-26 10:00:00 17.2 4 Sudeste 8 Sudeste 0 1004.1 0.5 73
2017-09-26 09:00:00 14.2 3 Sur 5 Sur 0 1003.7 0 82
2017-09-26 08:00:00 12.7 0 Calma 5 Sudeste 0 1003.4 -0.5 81
2017-09-26 07:00:00 13.4 4 Sur 6 Sudeste 0 1003.6 -0.3 80
2017-09-26 06:00:00 14.4 0 Calma 3 Sudoeste 0 1003.7 -0.4 76
2017-09-26 05:00:00 15.7 2 Sur 8 Sudeste 0 1003.9 -0.3 76
2017-09-26 04:00:00 17.5 4 Sudeste 13 Noroeste 0 1003.9 -0.2 69
2017-09-26 03:00:00 18.4 0 Calma 16 Oeste 0 1004.1 0 68
2017-09-26 02:00:00 19.7 3 Sudeste 18 Sudoeste 0 1004.2 0.3 65
2017-09-26 01:00:00 21.4 13 Oeste 34 Oeste 0 1004.1 1.4 62
2017-09-26 00:00:00 22.1 17 Oeste 32 Sudoeste 0 1004.1 1.6 60
2017-09-25 23:00:00 23.6 15 Oeste 38 Sudoeste 0 1003.9 1.9 52
2017-09-25 22:00:00 26.7 23 Oeste 35 Sudoeste 0 1002.7 0.6 42
2017-09-25 21:00:00 28.3 22 Oeste 30 Sudoeste 0 1002.5 0.2 38
2017-09-25 20:00:00 30 12 Oeste 24 Oeste 0 1002 -0.8 35
2017-09-25 19:00:00 31.9 11 Oeste 23 Oeste 0 1002.1 -1.5 34
2017-09-25 18:00:00 32.6 13 Oeste 32 Oeste 0 1002.3 -1.9 33
2017-09-25 17:00:00 32.9 14 Oeste 38 Oeste 0 1002.8 -2 33
2017-09-25 16:00:00 32.1 15 Oeste 30 Oeste 0 1003.6 -1.8 35
2017-09-25 15:00:00 31.3 14 Oeste 24 Oeste 0 1004.2 -1.9 35
2017-09-25 14:00:00 30.8 4 Sudoeste 12 Sur 0 1004.8 -1.6 38
2017-09-25 13:00:00 27.8 3 Noroeste 10 Sur 0 1005.4 -0.8 41
2017-09-25 12:00:00 26 4 Este 9 Sudeste 0 1006.1 0.1 50
2017-09-25 11:00:00 23 4 Sudeste 10 Este 0 1006.4 0.7 68
2017-09-25 10:00:00 19.7 5 Sudeste 7 Este 0 1006.2 0.9 74
2017-09-25 09:00:00 17.1 0 Calma 5 Sur 0 1006 1.2 81
2017-09-25 08:00:00 16.1 3 Sur 6 Sur 0 1005.7 0.9 82
2017-09-25 07:00:00 16.3 3 Sur 5 Sudeste 0 1005.3 0.3 79
2017-09-25 06:00:00 17.7 0 Calma 5 Sudeste 0 1004.8 -0.3 74
2017-09-25 05:00:00 18.2 0 Calma 5 Sudeste 0 1004.8 -0.2 74
2017-09-25 04:00:00 19.9 2 Nordeste 18 Sudoeste 0 1005 0 68
2017-09-25 03:00:00 21.2 8 Sudoeste 26 Sudoeste 0 1005.1 0.3 66
2017-09-25 02:00:00 21.8 11 Sudoeste 26 Sudoeste 0 1005 0.1 64
2017-09-25 01:00:00 22.6 18 Sudoeste 25 Sudoeste 0 1005 0.6 61
2017-09-25 00:00:00 23.5 16 Sudoeste 22 Sudoeste 0 1004.8 0.9 57
2017-09-24 23:00:00 24.9 12 Oeste 21 Sudoeste 0 1004.9 1.4 48
2017-09-24 22:00:00 24.7 4 Sur 13 Noroeste 0 1004.4 1.1 44
2017-09-24 21:00:00 26.5 7 Noroeste 10 Noroeste 0 1003.9 0.5 40
2017-09-24 20:00:00 29.9 3 Oeste 10 Sur 0 1003.5 -0.2 36
2017-09-24 19:00:00 31.6 6 Sur 12 Este 0 1003.3 -1 38
2017-09-24 18:00:00 31.6 7 Este 21 Sudeste 0 1003.4 -1.4 41
2017-09-24 17:00:00 31.8 4 Sudeste 20 Sudeste 0 1003.7 -1.8 42
2017-09-24 16:00:00 31 0 Calma 15 Este 0 1004.3 -1.8 43
2017-09-24 15:00:00 30.2 5 Este 21 Sur 0 1004.8 -1.6 44
2017-09-24 14:00:00 29.1 3 Sur 15 Sudeste 0 1005.5 -1 49
2017-09-24 13:00:00 27.6 5 Este 15 Sudeste 0 1006.1 -0.4 55
2017-09-24 12:00:00 25.8 5 Este 14 Este 0 1006.4 0.5 63
2017-09-24 11:00:00 23.8 5 Este 10 Este 0 1006.5 1 69
2017-09-24 10:00:00 20.4 5 Este 8 Este 0 1006.5 1.4 75
2017-09-24 09:00:00 17.5 4 Sur 9 Sudeste 0 1005.9 1 83
2017-09-24 08:00:00 16.9 0 Calma 6 Este 0 1005.5 0.8 82
2017-09-24 07:00:00 18.1 3 Noroeste 6 Oeste 0 1005.1 0.1 78
2017-09-24 06:00:00 18.6 3 Sur 12 Sur 0 1004.9 -0.3 77
2017-09-24 05:00:00 18.7 8 Sudoeste 16 Sur 0 1004.7 -0.3 77
2017-09-24 04:00:00 20.5 12 Sudoeste 20 Sudoeste 0 1005 0.4 74
2017-09-24 03:00:00 20.4 11 Sur 19 Sudoeste 0 1005.2 1.1 72
2017-09-24 02:00:00 21 14 Sudoeste 21 Sudoeste 0 1005 1.3 68
2017-09-24 01:00:00 21.3 11 Sudoeste 22 Sudoeste 0 1004.6 1.6 62
2017-09-24 00:00:00 22.6 17 Sudoeste 24 Sur 0 1004.1 1.8 60
2017-09-23 23:00:00 23.8 15 Sudoeste 22 Sudoeste 0 1003.7 2.2 55
2017-09-23 22:00:00 25 12 Sur 18 Sur 0 1003 1.5 52
2017-09-23 21:00:00 26 9 Sur 13 Sur 0 1002.3 1 48
2017-09-23 20:00:00 28.6 5 Este 9 Este 0 1001.5 -0.2 42
2017-09-23 19:00:00 30.5 3 Nordeste 12 Nordeste 0 1001.5 -0.7 40
2017-09-23 18:00:00 31.2 0 Calma 18 Sudeste 0 1001.3 -1.6 40
2017-09-23 17:00:00 31.3 0 Calma 19 Sudeste 0 1001.7 -1.9 41
2017-09-23 16:00:00 30.4 7 Sudeste 21 Sudeste 0 1002.2 -1.7 44
2017-09-23 15:00:00 30.3 12 Sur 22 Sur 0 1002.9 -1.1 45
2017-09-23 14:00:00 28.9 12 Sudeste 27 Este 0 1003.6 -0.6 49
2017-09-23 13:00:00 28.8 12 Sur 30 Este 0 1003.9 -0.2 51
2017-09-23 12:00:00 27.2 10 Sur 24 Sudeste 0 1004 0.2 56
2017-09-23 11:00:00 24.5 10 Este 19 Sudeste 0 1004.2 1.2 68
2017-09-23 10:00:00 20.9 3 Sudeste 6 Sudeste 0 1004.1 1.5 78
2017-09-23 09:00:00 17.6 2 Sudeste 5 Noroeste 0 1003.8 1.3 81
2017-09-23 08:00:00 18 4 Noroeste 6 Noroeste 0 1003 0.6 78
2017-09-23 07:00:00 18.1 0 Calma 6 Norte 0 1002.6 0.1 78
2017-09-23 06:00:00 18.9 3 Nordeste 9 Nordeste 0 1002.5 -0.3 77
2017-09-23 05:00:00 20.1 4 Sur 15 Sur 0 1002.4 -0.5 78
2017-09-23 04:00:00 20.6 9 Sur 18 Sudoeste 0 1002.5 -0.3 75
2017-09-23 03:00:00 20.9 9 Sur 17 Sur 0 1002.8 0.4 71
2017-09-23 02:00:00 21.3 11 Sur 23 Sur 0 1002.9 1.2 66
2017-09-23 01:00:00 22.1 14 Sur 33 Sudoeste 0 1002.8 1.6 65
2017-09-23 00:00:00 22.5 19 Sudoeste 27 Sur 0 1002.4 2 62
2017-09-22 23:00:00 23.1 16 Sur 26 Sur 0 1001.7 1.9 53
2017-09-22 22:00:00 24.2 15 Sudoeste 27 Sur 0 1001.2 1.7 45
2017-09-22 21:00:00 25.5 13 Sur 19 Sur 0 1000.4 0.8 42
2017-09-22 20:00:00 27.9 8 Sur 13 Sur 0 999.8 -0.1 37
2017-09-22 19:00:00 30.3 9 Sudeste 24 Sudeste 0 999.5 -1 35
2017-09-22 18:00:00 31.9 8 Sudeste 22 Nordeste 0 999.6 -1.3 34
2017-09-22 17:00:00 31.8 5 Noroeste 20 Noroeste 0 999.9 -1.8 34
2017-09-22 16:00:00 31.6 5 Sur 16 Sudoeste 0 1000.5 -1.8 35
2017-09-22 15:00:00 30.7 6 Sudoeste 18 Sur 0 1000.9 -1.8 38
2017-09-22 14:00:00 29.1 7 Sudeste 15 Sudeste 0 1001.7 -1.2 45
2017-09-22 13:00:00 26.8 2 Este 12 Este 0 1002.3 -0.3 51
2017-09-22 12:00:00 25.2 4 Este 10 Nordeste 0 1002.7 0.4 55
2017-09-22 11:00:00 22.4 3 Este 8 Sudeste 0 1002.9 1.3 56
2017-09-22 10:00:00 19.4 3 Sudeste 5 Este 0 1002.6 1.3 61
2017-09-22 09:00:00 16.1 3 Sudeste 5 Sudeste 0 1002.3 1.3 67
2017-09-22 08:00:00 15.3 0 Calma 4 Sur 0 1001.6 0.5 68
2017-09-22 07:00:00 15.8 0 Calma 4 Sur 0 1001.3 -0.1 68
2017-09-22 06:00:00 16.1 3 Sur 7 Sudeste 0 1001 -0.2 68
2017-09-22 05:00:00 17.4 0 Calma 6 Sudoeste 0 1001.1 0 63
2017-09-22 04:00:00 17.9 2 Oeste 6 Oeste 0 1001.4 0.5 58
2017-09-22 03:00:00 19.2 0 Calma 14 Sudoeste 0 1001.2 0.6 58
2017-09-22 02:00:00 20.5 4 Sudoeste 22 Sudoeste 0 1001.1 0.9 54
2017-09-22 01:00:00 22.1 15 Sudoeste 27 Sudoeste 0 1000.9 1.1 53
2017-09-22 00:00:00 23.2 17 Sudoeste 24 Sudoeste 0 1000.6 1.4 49
2017-09-21 23:00:00 24.8 17 Sudoeste 27 Oeste 0 1000.2 1.4 41
2017-09-21 22:00:00 26.3 16 Oeste 27 Oeste 0 999.8 1.2 36
2017-09-21 21:00:00 26.7 12 Oeste 19 Oeste 0 999.2 0.4 35
2017-09-21 20:00:00 29 13 Oeste 20 Sudoeste 0 998.8 0 33
2017-09-21 19:00:00 30.7 10 Oeste 21 Sudoeste 0 998.6 -0.8 33
2017-09-21 18:00:00 32.1 11 Oeste 25 Oeste 0 998.8 -1.1 32
2017-09-21 17:00:00 31.8 9 Oeste 22 Sudoeste 0 998.8 -1.8 31
2017-09-21 16:00:00 31.1 9 Oeste 22 Sudoeste 0 999.4 -1.9 30
2017-09-21 15:00:00 31.7 3 Este 23 Sur 0 999.9 -2.1 31
2017-09-21 14:00:00 30.7 12 Sudeste 23 Sudeste 0 1000.6 -1.6 35
2017-09-21 13:00:00 28.3 6 Este 14 Este 0 1001.3 -0.8 41
2017-09-21 12:00:00 26.2 4 Este 10 Sudeste 0 1002 0 46
2017-09-21 11:00:00 22.2 4 Este 9 Nordeste 0 1002.2 0.7 53
2017-09-21 10:00:00 18.4 5 Sudeste 8 Sudeste 0 1002.1 0.8 59
2017-09-21 09:00:00 15.2 4 Sudeste 7 Sudeste 0 1002 0.8 67
2017-09-21 08:00:00 13.5 0 Calma 8 Sudeste 0 1001.5 0.2 68
2017-09-21 07:00:00 14.2 4 Sur 6 Sudeste 0 1001.3 -0.2 66
2017-09-21 06:00:00 14.2 6 Sudeste 10 Sudeste 0 1001.2 -0.7 68
2017-09-21 05:00:00 15.9 6 Sudeste 16 Sudoeste 0 1001.3 -0.6 63
2017-09-21 04:00:00 17.2 11 Sur 14 Sur 0 1001.5 -0.2 60
2017-09-21 03:00:00 18.7 0 Calma 18 Sudoeste 0 1001.9 0.4 57
2017-09-21 02:00:00 19.4 11 Sudoeste 20 Sudoeste 0 1001.9 0.7 56
2017-09-21 01:00:00 21.7 15 Sudoeste 21 Sudoeste 0 1001.7 0.9 53
2017-09-21 00:00:00 22.6 15 Sudoeste 27 Sudoeste 0 1001.5 0.8 52
2017-09-20 23:00:00 23.9 17 Sudoeste 24 Sudoeste 0 1001.2 0.9 45
2017-09-20 22:00:00 25.2 12 Sudoeste 21 Sur 0 1000.8 0.4 38
2017-09-20 21:00:00 26 8 Sur 22 Sudoeste 0 1000.7 0.3 35
2017-09-20 20:00:00 28.9 9 Sudeste 16 Sudeste 0 1000.3 -0.5 34
2017-09-20 19:00:00 31.1 3 Este 15 Sudeste 0 1000.4 -1.1 31
2017-09-20 18:00:00 31.9 6 Sudeste 22 Sudeste 0 1000.4 -1.8 31
2017-09-20 17:00:00 32.3 7 Este 20 Este 0 1000.8 -2.2 32
2017-09-20 16:00:00 32.5 8 Sur 24 Sudeste 0 1001.5 -2.4 33
2017-09-20 15:00:00 31.2 5 Este 19 Oeste 0 1002.2 -2.1 37
2017-09-20 14:00:00 30.1 3 Sudeste 15 Sudeste 0 1003 -1.6 41
2017-09-20 13:00:00 28.2 2 Noroeste 12 Este 0 1003.9 -0.6 45
2017-09-20 12:00:00 26.3 4 Sudeste 10 Sudeste 0 1004.3 -0.2 49
2017-09-20 11:00:00 22.8 4 Sudeste 10 Este 0 1004.6 0.3 55
2017-09-20 10:00:00 20 2 Este 6 Este 0 1004.5 0.3 59
2017-09-20 09:00:00 15.8 0 Calma 2 Norte 0 1004.5 0.1 66
2017-09-20 08:00:00 13.9 0 Calma 5 Sudoeste 0 1004.3 -0.2 67
2017-09-20 07:00:00 14.7 0 Calma 4 Sudeste 0 1004.2 -0.5 67
2017-09-20 06:00:00 15.1 3 Sur 7 Sudeste 0 1004.4 -0.2 68
2017-09-20 05:00:00 15.5 5 Sudeste 6 Sudeste 0 1004.5 -0.4 67
2017-09-20 04:00:00 16.7 4 Sudeste 6 Este 0 1004.7 -0.1 63
2017-09-20 03:00:00 19.3 6 Sudoeste 18 Sudoeste 0 1004.6 -0.3 62
2017-09-20 02:00:00 20.3 13 Sudoeste 18 Sudoeste 0 1004.9 0.3 59
2017-09-20 01:00:00 20.2 5 Sur 17 Sudoeste 0 1004.8 0.7 56
2017-09-20 00:00:00 22.4 15 Sudoeste 24 Sudoeste 0 1004.9 1.3 52